createdAt,value
2016-12-21T00:00:50.566Z,28.6
2016-12-21T00:01:48.974Z,28.6
2016-12-21T00:02:49.062Z,28.6
2016-12-21T00:03:49.137Z,28.6
2016-12-21T00:04:50.810Z,28.6
2016-12-21T00:05:49.234Z,28.6
2016-12-21T00:06:49.412Z,28.6
2016-12-21T00:07:49.307Z,28.6
2016-12-21T00:08:51.001Z,28.6
2016-12-21T00:09:49.623Z,28.6
2016-12-21T00:10:51.263Z,28.6
2016-12-21T00:11:49.631Z,28.6
2016-12-21T00:12:49.803Z,28.6
2016-12-21T00:13:49.965Z,28.6
2016-12-21T00:14:49.944Z,28.6
2016-12-21T00:15:49.972Z,28.6
2016-12-21T00:16:51.671Z,28.5
2016-12-21T00:17:51.741Z,28.6
2016-12-21T00:18:51.788Z,28.6
2016-12-21T00:19:51.728Z,28.5
2016-12-21T00:20:50.331Z,28.6
2016-12-21T00:21:50.344Z,28.6
2016-12-21T00:22:51.816Z,28.6
2016-12-21T00:23:50.354Z,28.5
2016-12-21T00:24:50.302Z,28.6
2016-12-21T00:25:50.312Z,28.6
2016-12-21T00:26:52.030Z,28.6
2016-12-21T00:27:50.449Z,28.5
2016-12-21T00:28:50.708Z,28.6
2016-12-21T00:29:52.250Z,28.6
2016-12-21T00:30:50.785Z,28.6
2016-12-21T00:31:50.622Z,28.6
2016-12-21T00:32:50.841Z,28.6
2016-12-21T00:33:50.675Z,28.6
2016-12-21T00:34:50.749Z,28.6
2016-12-21T00:35:52.457Z,28.6
2016-12-21T00:36:50.845Z,28.6
2016-12-21T00:37:52.596Z,28.6
2016-12-21T00:38:52.721Z,28.6
2016-12-21T00:39:51.148Z,28.6
2016-12-21T00:40:51.096Z,28.5
2016-12-21T00:41:52.772Z,28.5
2016-12-21T00:42:52.845Z,28.6
2016-12-21T00:43:51.334Z,28.6
2016-12-21T00:44:51.320Z,28.6
2016-12-21T00:45:53.020Z,28.6
2016-12-21T00:46:52.355Z,28.6
2016-12-21T00:47:53.162Z,28.6
2016-12-21T00:48:52.324Z,28.6
2016-12-21T00:49:53.242Z,28.5
2016-12-21T00:50:53.171Z,28.6
2016-12-21T00:51:53.215Z,28.6
2016-12-21T00:52:53.221Z,28.6
2016-12-21T00:53:53.250Z,28.6
2016-12-21T00:54:53.350Z,28.6
2016-12-21T00:55:53.484Z,28.6
2016-12-21T00:56:53.427Z,28.6
2016-12-21T00:57:51.837Z,28.6
2016-12-21T00:58:53.605Z,28.6
2016-12-21T00:59:53.738Z,28.5
2016-12-21T01:00:52.059Z,28.6
2016-12-21T01:01:53.858Z,28.6
2016-12-21T01:02:52.168Z,28.6
2016-12-21T01:03:53.868Z,28.6
2016-12-21T01:04:52.232Z,28.6
2016-12-21T01:05:54.018Z,28.6
2016-12-21T01:06:53.958Z,28.6
2016-12-21T01:07:52.336Z,28.5
2016-12-21T01:08:54.007Z,28.6
2016-12-21T01:09:54.036Z,28.6
2016-12-21T01:10:52.646Z,28.6
2016-12-21T01:11:52.580Z,28.5
2016-12-21T01:12:52.799Z,28.5
2016-12-21T01:13:52.854Z,28.5
2016-12-21T01:14:52.739Z,28.5
2016-12-21T01:15:54.517Z,28.5
2016-12-21T01:16:52.856Z,28.5
2016-12-21T01:17:54.568Z,28.5
2016-12-21T01:18:54.651Z,28.5
2016-12-21T01:19:54.555Z,28.5
2016-12-21T01:20:54.700Z,28.5
2016-12-21T01:21:55.672Z,28.5
2016-12-21T01:22:53.133Z,28.5
2016-12-21T01:23:53.236Z,28.5
2016-12-21T01:24:53.344Z,28.5
2016-12-21T01:25:53.400Z,28.5
2016-12-21T01:26:55.012Z,28.5
2016-12-21T01:27:53.333Z,28.5
2016-12-21T01:28:55.055Z,28.5
2016-12-21T01:29:53.519Z,28.5
2016-12-21T01:30:55.040Z,28.5
2016-12-21T01:36:44.199Z,28.4
2016-12-21T01:37:42.679Z,28.4
2016-12-21T01:38:44.299Z,28.4
2016-12-21T01:39:42.811Z,28.4
2016-12-21T01:40:44.229Z,28.4
2016-12-21T01:41:44.243Z,28.4
2016-12-21T01:42:44.333Z,28.4
2016-12-21T01:43:42.865Z,28.4
2016-12-21T01:44:44.465Z,28.4
2016-12-21T01:45:44.507Z,28.5
2016-12-21T01:46:43.063Z,28.5
2016-12-21T01:47:43.218Z,28.5
2016-12-21T01:48:43.129Z,28.5
2016-12-21T01:49:43.168Z,28.5
2016-12-21T01:50:43.390Z,28.5
2016-12-21T01:51:43.282Z,28.5
2016-12-21T01:52:44.916Z,28.5
2016-12-21T01:53:43.368Z,28.5
2016-12-21T01:54:43.408Z,28.5
2016-12-21T01:55:43.441Z,28.5
2016-12-21T01:56:43.514Z,28.5
2016-12-21T01:57:43.455Z,28.5
2016-12-21T01:58:45.163Z,28.5
2016-12-21T01:59:45.301Z,28.5
2016-12-21T02:00:45.217Z,28.5
2016-12-21T02:01:45.316Z,28.5
2016-12-21T02:02:45.376Z,28.5
2016-12-21T02:03:43.998Z,28.5
2016-12-21T02:04:45.505Z,28.5
2016-12-21T02:05:45.708Z,28.5
2016-12-21T02:06:45.594Z,28.5
2016-12-21T02:07:43.991Z,28.5
2016-12-21T02:08:45.633Z,28.4
2016-12-21T02:09:45.805Z,28.5
2016-12-21T02:10:45.818Z,28.5
2016-12-21T02:11:44.141Z,28.5
2016-12-21T02:12:44.131Z,28.5
2016-12-21T02:13:44.328Z,28.5
2016-12-21T02:14:44.241Z,28.4
2016-12-21T02:15:45.925Z,28.5
2016-12-21T02:16:45.990Z,28.5
2016-12-21T02:17:46.071Z,28.4
2016-12-21T02:18:44.545Z,28.5
2016-12-21T02:19:44.750Z,28.5
2016-12-21T02:20:46.386Z,28.4
2016-12-21T02:21:44.861Z,28.5
2016-12-21T02:22:44.904Z,28.5
2016-12-21T02:23:44.991Z,28.5
2016-12-21T02:24:45.027Z,28.4
2016-12-21T02:25:45.077Z,28.5
2016-12-21T02:26:45.161Z,28.5
2016-12-21T02:27:45.204Z,28.5
2016-12-21T02:28:46.858Z,28.5
2016-12-21T02:29:45.333Z,28.5
2016-12-21T02:30:46.959Z,28.5
2016-12-21T02:31:46.984Z,28.5
2016-12-21T02:32:45.309Z,28.5
2016-12-21T02:33:45.368Z,28.5
2016-12-21T02:34:47.046Z,28.4
2016-12-21T02:35:45.614Z,28.5
2016-12-21T02:36:45.558Z,28.5
2016-12-21T02:37:47.333Z,28.5
2016-12-21T02:38:45.676Z,28.5
2016-12-21T02:39:45.755Z,28.5
2016-12-21T02:40:47.529Z,28.5
2016-12-21T02:41:47.428Z,28.5
2016-12-21T02:42:47.670Z,28.5
2016-12-21T02:43:47.521Z,28.5
2016-12-21T02:44:47.704Z,28.5
2016-12-21T02:45:46.717Z,28.5
2016-12-21T02:46:46.343Z,28.5
2016-12-21T02:47:47.891Z,28.5
2016-12-21T02:48:47.634Z,28.5
2016-12-21T02:49:48.085Z,28.5
2016-12-21T02:50:47.938Z,28.4
2016-12-21T02:51:46.432Z,28.5
2016-12-21T02:52:48.229Z,28.5
2016-12-21T02:53:48.144Z,28.5
2016-12-21T02:54:49.579Z,28.5
2016-12-21T02:55:49.329Z,28.5
2016-12-21T02:56:48.690Z,28.5
2016-12-21T02:57:52.612Z,28.4
2016-12-21T02:58:47.644Z,28.5
2016-12-21T02:59:48.707Z,28.4
2016-12-21T03:00:47.287Z,28.4
2016-12-21T03:01:47.006Z,28.4
2016-12-21T03:02:50.321Z,28.4
2016-12-21T03:03:47.366Z,28.4
2016-12-21T03:04:48.993Z,28.4
2016-12-21T03:05:48.664Z,28.4
2016-12-21T03:06:51.317Z,28.4
2016-12-21T03:07:49.132Z,28.4
2016-12-21T03:08:48.481Z,28.4
2016-12-21T03:09:49.193Z,28.4
2016-12-21T03:10:50.188Z,28.4
2016-12-21T03:11:47.957Z,28.4
2016-12-21T03:12:47.725Z,28.4
2016-12-21T03:13:47.837Z,28.4
2016-12-21T03:14:49.509Z,28.4
2016-12-21T03:15:48.009Z,28.4
2016-12-21T03:16:49.782Z,28.4
2016-12-21T03:17:48.704Z,28.4
2016-12-21T03:18:48.288Z,28.4
2016-12-21T03:19:49.387Z,28.4
2016-12-21T03:20:50.261Z,28.4
2016-12-21T03:21:49.724Z,28.4
2016-12-21T03:22:50.101Z,28.4
2016-12-21T03:23:48.503Z,28.4
2016-12-21T03:24:48.624Z,28.4
2016-12-21T03:25:48.662Z,28.4
2016-12-21T03:26:50.319Z,28.4
2016-12-21T03:27:48.792Z,28.4
2016-12-21T03:28:48.877Z,28.4
2016-12-21T03:29:48.957Z,28.4
2016-12-21T03:30:50.433Z,28.4
2016-12-21T03:31:49.031Z,28.4
2016-12-21T03:32:50.611Z,28.4
2016-12-21T03:33:50.816Z,28.4
2016-12-21T03:34:50.634Z,28.4
2016-12-21T03:35:49.056Z,28.4
2016-12-21T03:36:50.918Z,28.4
2016-12-21T03:37:49.342Z,28.4
2016-12-21T03:38:50.927Z,28.4
2016-12-21T03:39:49.923Z,28.4
2016-12-21T03:40:51.551Z,28.4
2016-12-21T03:41:52.387Z,28.4
2016-12-21T03:42:50.478Z,28.4
2016-12-21T03:43:54.163Z,28.4
2016-12-21T03:44:51.281Z,28.4
2016-12-21T03:45:50.947Z,28.4
2016-12-21T03:46:51.277Z,28.4
2016-12-21T03:47:49.599Z,28.4
2016-12-21T03:48:54.039Z,28.4
2016-12-21T03:49:49.619Z,28.4
2016-12-21T03:50:49.824Z,28.4
2016-12-21T03:51:51.353Z,28.4
2016-12-21T03:52:49.817Z,28.4
2016-12-21T03:53:51.460Z,28.4
2016-12-21T03:54:49.925Z,28.4
2016-12-21T03:55:51.630Z,28.4
2016-12-21T03:56:51.629Z,28.3
2016-12-21T03:57:51.864Z,28.4
2016-12-21T03:58:51.768Z,28.4
2016-12-21T03:59:50.180Z,28.4
2016-12-21T04:00:51.844Z,28.4
2016-12-21T04:01:51.835Z,28.4
2016-12-21T04:02:51.968Z,28.4
2016-12-21T04:03:51.955Z,28.4
2016-12-21T04:04:52.210Z,28.4
2016-12-21T04:05:50.786Z,28.3
2016-12-21T04:06:52.369Z,28.4
2016-12-21T04:07:52.335Z,28.4
2016-12-21T04:08:52.568Z,28.4
2016-12-21T04:09:52.532Z,28.4
2016-12-21T04:10:53.138Z,28.4
2016-12-21T04:11:52.397Z,28.4
2016-12-21T04:12:51.108Z,28.4
2016-12-21T04:13:52.582Z,28.4
2016-12-21T04:14:52.636Z,28.4
2016-12-21T04:15:52.629Z,28.4
2016-12-21T04:16:52.864Z,28.4
2016-12-21T04:17:52.884Z,28.4
2016-12-21T04:18:51.339Z,28.3
2016-12-21T04:19:52.791Z,28.4
2016-12-21T04:20:52.800Z,28.4
2016-12-21T04:21:52.891Z,28.4
2016-12-21T04:22:53.103Z,28.3
2016-12-21T04:23:53.089Z,28.3
2016-12-21T04:24:51.519Z,28.4
2016-12-21T04:25:53.104Z,28.3
2016-12-21T04:26:51.530Z,28.3
2016-12-21T04:27:53.145Z,28.3
2016-12-21T04:28:53.099Z,28.3
2016-12-21T04:29:51.627Z,28.3
2016-12-21T04:30:51.716Z,28.4
2016-12-21T04:31:53.371Z,28.3
2016-12-21T04:32:51.842Z,28.3
2016-12-21T04:33:51.720Z,28.4
2016-12-21T04:34:53.452Z,28.3
2016-12-21T04:35:51.858Z,28.3
2016-12-21T04:36:51.861Z,28.3
2016-12-21T04:37:51.950Z,28.3
2016-12-21T04:38:52.126Z,28.3
2016-12-21T04:39:53.790Z,28.3
2016-12-21T04:40:52.251Z,28.3
2016-12-21T04:41:53.904Z,28.3
2016-12-21T04:42:52.220Z,28.3
2016-12-21T04:43:53.997Z,28.3
2016-12-21T04:44:54.098Z,28.3
2016-12-21T04:45:54.220Z,28.3
2016-12-21T04:46:52.811Z,28.3
2016-12-21T04:47:54.326Z,28.3
2016-12-21T04:48:54.494Z,28.3
2016-12-21T04:49:54.217Z,28.3
2016-12-21T04:50:54.234Z,28.3
2016-12-21T04:51:52.783Z,28.3
2016-12-21T04:52:54.434Z,28.3
2016-12-21T04:53:52.753Z,28.3
2016-12-21T04:54:54.437Z,28.3
2016-12-21T04:55:54.630Z,28.3
2016-12-21T04:56:52.950Z,28.3
2016-12-21T04:57:54.729Z,28.3
2016-12-21T04:58:54.662Z,28.3
2016-12-21T04:59:54.759Z,28.3
2016-12-21T05:00:53.169Z,28.3
2016-12-21T05:01:53.403Z,28.3
2016-12-21T05:02:55.040Z,28.3
2016-12-21T05:03:55.091Z,28.3
2016-12-21T05:04:55.110Z,28.3
2016-12-21T05:05:55.060Z,28.3
2016-12-21T05:06:53.537Z,28.3
2016-12-21T05:07:53.661Z,28.3
2016-12-21T05:08:55.338Z,28.3
2016-12-21T05:09:53.817Z,28.3
2016-12-21T05:10:54.007Z,28.3
2016-12-21T05:11:55.519Z,28.3
2016-12-21T05:12:55.740Z,28.3
2016-12-21T05:13:55.694Z,28.3
2016-12-21T05:14:54.109Z,28.3
2016-12-21T05:15:54.146Z,28.3
2016-12-21T05:16:54.387Z,28.3
2016-12-21T05:17:55.971Z,28.3
2016-12-21T05:18:54.388Z,28.3
2016-12-21T05:19:55.960Z,28.3
2016-12-21T05:20:54.589Z,28.3
2016-12-21T05:21:54.645Z,28.3
2016-12-21T05:22:54.669Z,28.3
2016-12-21T05:23:54.720Z,28.3
2016-12-21T05:24:56.236Z,28.3
2016-12-21T05:25:54.736Z,28.3
2016-12-21T05:26:56.481Z,28.3
2016-12-21T05:27:54.870Z,28.3
2016-12-21T05:28:54.981Z,28.3
2016-12-21T05:29:55.042Z,28.3
2016-12-21T05:30:56.775Z,28.3
2016-12-21T05:31:56.759Z,28.3
2016-12-21T05:32:56.840Z,28.3
2016-12-21T05:33:56.910Z,28.3
2016-12-21T05:34:55.106Z,28.3
2016-12-21T05:35:56.840Z,28.3
2016-12-21T05:36:55.451Z,28.3
2016-12-21T05:37:56.957Z,28.3
2016-12-21T05:38:55.554Z,28.3
2016-12-21T05:39:55.525Z,28.3
2016-12-21T05:40:55.520Z,28.3
2016-12-21T05:41:55.487Z,28.3
2016-12-21T05:42:57.183Z,28.3
2016-12-21T05:43:55.532Z,28.2
2016-12-21T05:44:57.319Z,28.3
2016-12-21T05:45:57.444Z,28.3
2016-12-21T05:46:57.964Z,28.3
2016-12-21T05:47:57.488Z,28.3
2016-12-21T05:48:56.005Z,28.2
2016-12-21T05:49:56.756Z,28.2
2016-12-21T05:50:55.956Z,28.3
2016-12-21T05:51:57.372Z,28.3
2016-12-21T05:52:55.827Z,28.3
2016-12-21T05:53:55.854Z,28.3
2016-12-21T05:54:56.061Z,28.3
2016-12-21T05:55:55.949Z,28.3
2016-12-21T05:56:56.194Z,28.3
2016-12-21T05:57:56.197Z,28.3
2016-12-21T05:58:56.719Z,28.4
2016-12-21T05:59:56.262Z,28.4
2016-12-21T06:00:56.260Z,28.4
2016-12-21T06:01:57.740Z,28.4
2016-12-21T06:02:57.881Z,28.5
2016-12-21T06:03:57.959Z,28.5
2016-12-21T06:04:56.235Z,28.5
2016-12-21T06:05:57.933Z,28.5
2016-12-21T06:06:56.359Z,28.6
2016-12-21T06:07:57.978Z,28.6
2016-12-21T06:08:58.113Z,28.6
2016-12-21T06:09:58.210Z,28.6
2016-12-21T06:10:56.582Z,28.6
2016-12-21T06:11:58.328Z,28.7
2016-12-21T06:12:56.741Z,28.7
2016-12-21T06:13:56.762Z,28.7
2016-12-21T06:14:58.416Z,28.7
2016-12-21T06:15:56.867Z,28.8
2016-12-21T06:16:58.643Z,28.8
2016-12-21T06:17:58.632Z,28.8
2016-12-21T06:18:58.644Z,28.8
2016-12-21T06:19:57.032Z,28.9
2016-12-21T06:20:58.823Z,28.8
2016-12-21T06:21:57.075Z,28.9
2016-12-21T06:22:57.142Z,28.9
2016-12-21T06:23:59.102Z,28.9
2016-12-21T06:24:57.259Z,28.9
2016-12-21T06:25:57.447Z,29
2016-12-21T06:26:58.966Z,28.9
2016-12-21T06:27:57.512Z,29
2016-12-21T06:28:59.011Z,29
2016-12-21T06:29:57.460Z,29
2016-12-21T06:30:59.136Z,29.1
2016-12-21T06:31:59.263Z,29.1
2016-12-21T06:32:57.557Z,29.1
2016-12-21T06:33:59.328Z,29.1
2016-12-21T06:34:57.664Z,29.1
2016-12-21T06:35:57.693Z,29.2
2016-12-21T06:36:57.741Z,29.2
2016-12-21T06:37:59.503Z,29.2
2016-12-21T06:38:59.409Z,29.2
2016-12-21T06:39:59.565Z,29.2
2016-12-21T06:40:59.593Z,29.3
2016-12-21T06:41:57.863Z,29.3
2016-12-21T06:42:59.527Z,29.3
2016-12-21T06:43:59.720Z,29.3
2016-12-21T06:44:59.740Z,29.3
2016-12-21T06:46:00.255Z,29.4
2016-12-21T06:46:59.824Z,29.4
2016-12-21T06:47:58.366Z,29.4
2016-12-21T06:49:00.613Z,29.4
2016-12-21T06:49:58.951Z,29.4
2016-12-21T06:50:58.378Z,29.5
2016-12-21T06:52:00.070Z,29.5
2016-12-21T06:52:58.439Z,29.5
2016-12-21T06:53:58.476Z,29.5
2016-12-21T06:54:59.668Z,29.5
2016-12-21T06:55:58.703Z,29.5
2016-12-21T06:57:00.300Z,29.5
2016-12-21T06:57:58.836Z,29.5
2016-12-21T06:59:00.322Z,29.5
2016-12-21T07:00:00.348Z,29.6
2016-12-21T07:01:00.532Z,29.6
2016-12-21T07:02:00.551Z,29.6
2016-12-21T07:03:00.563Z,29.6
2016-12-21T07:04:00.555Z,29.6
2016-12-21T07:04:59.050Z,29.6
2016-12-21T07:05:59.165Z,29.6
2016-12-21T07:06:59.026Z,29.6
2016-12-21T07:08:00.783Z,29.6
2016-12-21T07:08:59.295Z,29.6
2016-12-21T07:09:59.869Z,29.7
2016-12-21T07:11:00.907Z,29.7
2016-12-21T07:12:00.129Z,29.7
2016-12-21T07:12:59.479Z,29.7
2016-12-21T07:14:01.027Z,29.7
2016-12-21T07:15:01.166Z,29.7
2016-12-21T07:15:59.555Z,29.8
2016-12-21T07:17:01.172Z,29.7
2016-12-21T07:18:01.294Z,29.8
2016-12-21T07:19:01.273Z,29.8
2016-12-21T07:19:59.738Z,29.8
2016-12-21T07:20:59.952Z,29.8
2016-12-21T07:22:01.429Z,29.8
2016-12-21T07:23:02.882Z,29.8
2016-12-21T07:24:02.180Z,29.8
2016-12-21T07:25:00.668Z,29.8
2016-12-21T07:26:00.146Z,29.8
2016-12-21T07:27:00.307Z,29.8
2016-12-21T07:28:01.918Z,29.9
2016-12-21T07:29:01.971Z,29.8
2016-12-21T07:30:01.978Z,29.9
2016-12-21T07:31:00.427Z,29.9
2016-12-21T07:32:02.040Z,30
2016-12-21T07:33:01.084Z,30
2016-12-21T07:34:00.362Z,30
2016-12-21T07:35:02.222Z,30
2016-12-21T07:36:02.100Z,30
2016-12-21T07:37:02.113Z,30
2016-12-21T07:38:02.097Z,30
2016-12-21T07:39:02.926Z,30
2016-12-21T07:40:02.235Z,30
2016-12-21T07:41:02.399Z,30
2016-12-21T07:42:03.108Z,30
2016-12-21T07:43:00.678Z,30
2016-12-21T07:44:07.807Z,29.9
2016-12-21T07:45:04.431Z,30
2016-12-21T07:46:03.886Z,30
2016-12-21T07:47:02.363Z,30
2016-12-21T07:48:02.027Z,30
2016-12-21T07:49:01.634Z,30
2016-12-21T07:50:02.688Z,30
2016-12-21T07:51:01.123Z,30
2016-12-21T07:52:01.700Z,30
2016-12-21T07:53:02.853Z,30.1
2016-12-21T07:54:01.987Z,30.1
2016-12-21T07:55:03.555Z,30.1
2016-12-21T07:56:01.372Z,30.1
2016-12-21T07:57:03.012Z,30.1
2016-12-21T07:58:03.078Z,30.1
2016-12-21T07:59:01.716Z,30.2
2016-12-21T08:00:01.717Z,30.2
2016-12-21T08:01:03.826Z,30.2
2016-12-21T08:02:01.650Z,30.2
2016-12-21T08:03:01.750Z,30.2
2016-12-21T08:04:03.212Z,30.3
2016-12-21T08:05:03.779Z,30.3
2016-12-21T08:06:04.061Z,30.3
2016-12-21T08:07:04.316Z,30.3
2016-12-21T08:08:02.626Z,30.3
2016-12-21T08:09:03.846Z,30.3
2016-12-21T08:10:05.059Z,30.3
2016-12-21T08:11:04.048Z,30.3
2016-12-21T08:12:03.999Z,30.4
2016-12-21T08:13:02.507Z,30.3
2016-12-21T08:14:04.213Z,30.4
2016-12-21T08:15:02.607Z,30.4
2016-12-21T08:16:05.416Z,30.4
2016-12-21T08:17:03.393Z,30.4
2016-12-21T08:18:05.001Z,30.5
2016-12-21T08:19:03.328Z,30.5
2016-12-21T08:20:04.433Z,30.5
2016-12-21T08:21:04.362Z,30.6
2016-12-21T08:22:02.762Z,30.6
2016-12-21T08:23:04.920Z,30.6
2016-12-21T08:24:04.260Z,30.7
2016-12-21T08:25:04.544Z,30.7
2016-12-21T08:26:06.051Z,30.8
2016-12-21T08:27:04.688Z,30.8
2016-12-21T08:28:03.246Z,30.8
2016-12-21T08:29:05.474Z,30.8
2016-12-21T08:30:03.297Z,30.8
2016-12-21T08:31:03.289Z,30.9
2016-12-21T08:32:06.115Z,30.9
2016-12-21T08:33:03.341Z,30.9
2016-12-21T08:34:05.170Z,30.9
2016-12-21T08:35:04.285Z,30.9
2016-12-21T08:36:04.798Z,30.9
2016-12-21T08:37:05.313Z,31
2016-12-21T08:38:05.319Z,31
2016-12-21T08:39:03.834Z,31
2016-12-21T08:40:04.605Z,31
2016-12-21T08:41:05.533Z,31
2016-12-21T08:42:05.528Z,31
2016-12-21T08:43:04.601Z,31
2016-12-21T08:44:04.590Z,31
2016-12-21T08:45:08.190Z,31
2016-12-21T08:46:07.515Z,31
2016-12-21T08:47:07.097Z,31
2016-12-21T08:48:06.471Z,30.9
2016-12-21T08:49:04.347Z,30.9
2016-12-21T08:50:04.857Z,30.9
2016-12-21T08:51:07.182Z,30.9
2016-12-21T08:52:06.725Z,30.9
2016-12-21T08:53:06.640Z,30.9
2016-12-21T08:54:04.386Z,30.9
2016-12-21T08:55:08.255Z,30.9
2016-12-21T08:56:14.011Z,30.9
2016-12-21T08:57:17.368Z,30.8
2016-12-21T08:58:11.069Z,30.8
2016-12-21T08:59:06.121Z,30.9
2016-12-21T09:00:06.550Z,30.9
2016-12-21T09:01:10.250Z,30.9
2016-12-21T09:02:10.865Z,30.9
2016-12-21T09:03:06.701Z,30.9
2016-12-21T09:04:06.620Z,30.9
2016-12-21T09:05:05.237Z,30.9
2016-12-21T09:06:07.098Z,30.9
2016-12-21T09:07:07.323Z,30.8
2016-12-21T09:08:07.007Z,30.8
2016-12-21T09:09:05.468Z,30.8
2016-12-21T09:10:06.023Z,30.8
2016-12-21T09:11:06.108Z,30.8
2016-12-21T09:12:06.188Z,30.8
2016-12-21T09:13:08.696Z,30.8
2016-12-21T09:14:07.668Z,30.8
2016-12-21T09:15:08.436Z,30.8
2016-12-21T09:16:07.365Z,30.8
2016-12-21T09:17:11.575Z,30.8
2016-12-21T09:18:12.226Z,30.8
2016-12-21T09:19:07.169Z,30.8
2016-12-21T09:20:09.956Z,30.8
2016-12-21T09:21:10.920Z,30.8
2016-12-21T09:22:13.436Z,30.8
2016-12-21T09:23:15.737Z,30.7
2016-12-21T09:24:12.870Z,30.7
2016-12-21T09:25:23.154Z,30.7
2016-12-21T09:26:28.267Z,30.7
2016-12-21T09:27:12.794Z,30.7
2016-12-21T09:28:15.690Z,30.7
2016-12-21T09:29:15.373Z,30.7
2016-12-21T09:30:09.946Z,30.7
2016-12-21T09:31:12.695Z,30.7
2016-12-21T09:32:18.888Z,30.7
2016-12-21T09:33:15.544Z,30.7
2016-12-21T09:34:12.239Z,30.7
2016-12-21T09:35:09.273Z,30.7
2016-12-21T09:36:10.208Z,30.8
2016-12-21T09:37:13.783Z,30.8
2016-12-21T09:38:11.989Z,30.8
2016-12-21T09:39:11.275Z,30.8
2016-12-21T09:40:11.160Z,30.8
2016-12-21T09:41:11.788Z,30.8
2016-12-21T09:42:14.206Z,30.7
2016-12-21T09:43:14.071Z,30.8
2016-12-21T09:44:12.642Z,30.8
2016-12-21T09:45:11.421Z,30.8
2016-12-21T09:46:08.986Z,30.8
2016-12-21T09:47:14.005Z,30.8
2016-12-21T09:48:11.433Z,30.8
2016-12-21T09:49:09.557Z,30.8
2016-12-21T09:50:11.007Z,30.8
2016-12-21T09:51:12.328Z,30.8
2016-12-21T09:52:11.664Z,30.8
2016-12-21T09:53:11.718Z,30.9
2016-12-21T09:54:10.791Z,30.8
2016-12-21T09:55:12.566Z,30.9
2016-12-21T09:56:09.319Z,30.9
2016-12-21T09:57:09.886Z,30.9
2016-12-21T09:58:11.711Z,30.8
2016-12-21T09:59:20.088Z,30.8
2016-12-21T10:00:18.274Z,30.8
2016-12-21T10:01:28.579Z,30.8
2016-12-21T10:02:31.158Z,30.8
2016-12-21T10:03:20.689Z,30.8
2016-12-21T10:04:19.801Z,30.8
2016-12-21T10:05:21.737Z,30.8
2016-12-21T10:06:21.546Z,30.8
2016-12-21T10:07:23.438Z,30.9
2016-12-21T10:08:20.411Z,30.9
2016-12-21T10:09:29.805Z,30.9
2016-12-21T10:10:12.842Z,30.9
2016-12-21T10:11:10.866Z,30.9
2016-12-21T10:12:10.978Z,30.8
2016-12-21T10:13:14.495Z,30.8
2016-12-21T10:15:16.006Z,30.9
2016-12-21T10:16:19.715Z,30.9
2016-12-21T10:17:18.049Z,30.9
2016-12-21T10:18:25.134Z,30.9
2016-12-21T10:19:19.298Z,30.9
2016-12-21T10:20:23.252Z,30.9
2016-12-21T10:21:15.878Z,30.9
2016-12-21T10:22:19.807Z,31
2016-12-21T10:23:17.867Z,31
2016-12-21T10:24:12.997Z,31
2016-12-21T10:25:21.795Z,31
2016-12-21T10:26:29.657Z,31
2016-12-21T10:27:20.722Z,31
2016-12-21T10:28:23.834Z,31
2016-12-21T10:29:21.602Z,31.1
2016-12-21T10:30:15.192Z,31.1
2016-12-21T10:31:15.670Z,31.1
2016-12-21T10:32:18.971Z,31.1
2016-12-21T10:33:18.615Z,31.1
2016-12-21T10:34:19.437Z,31.1
2016-12-21T10:35:17.547Z,31.1
2016-12-21T10:36:15.911Z,31.1
2016-12-21T10:37:23.276Z,31.1
2016-12-21T10:38:17.673Z,31.1
2016-12-21T10:39:17.358Z,31.1
2016-12-21T10:40:20.072Z,31.1
2016-12-21T10:41:17.803Z,31.2
2016-12-21T10:42:12.198Z,31.2
2016-12-21T10:43:12.992Z,31.2
2016-12-21T10:44:12.528Z,31.2
2016-12-21T10:45:14.415Z,31.2
2016-12-21T10:46:13.866Z,31.2
2016-12-21T10:47:16.864Z,31.2
2016-12-21T10:48:16.847Z,31.2
2016-12-21T10:49:20.993Z,31.2
2016-12-21T10:50:15.829Z,31.3
2016-12-21T10:51:12.923Z,31.3
2016-12-21T10:52:25.004Z,31.3
2016-12-21T10:53:14.808Z,31.3
2016-12-21T10:54:16.073Z,31.3
2016-12-21T10:55:21.051Z,31.3
2016-12-21T10:56:12.136Z,31.3
2016-12-21T10:57:16.007Z,31.3
2016-12-21T10:58:14.533Z,31.3
2016-12-21T10:59:18.158Z,31.3
2016-12-21T11:00:14.596Z,31.3
2016-12-21T11:01:15.100Z,31.3
2016-12-21T11:02:16.496Z,31.4
2016-12-21T11:03:19.952Z,31.4
2016-12-21T11:04:14.515Z,31.4
2016-12-21T11:05:12.285Z,31.4
2016-12-21T11:06:14.742Z,31.4
2016-12-21T11:07:13.163Z,31.4
2016-12-21T11:08:13.419Z,31.5
2016-12-21T11:09:12.724Z,31.5
2016-12-21T11:10:13.863Z,31.5
2016-12-21T11:11:14.037Z,31.5
2016-12-21T11:12:11.879Z,31.5
2016-12-21T11:13:13.199Z,31.5
2016-12-21T11:14:13.079Z,31.5
2016-12-21T11:15:13.727Z,31.6
2016-12-21T11:16:11.515Z,31.6
2016-12-21T11:17:13.793Z,31.6
2016-12-21T11:18:17.114Z,31.6
2016-12-21T11:19:13.208Z,31.6
2016-12-21T11:20:11.754Z,31.7
2016-12-21T11:21:11.870Z,31.7
2016-12-21T11:22:12.163Z,31.7
2016-12-21T11:23:12.893Z,31.7
2016-12-21T11:24:15.856Z,31.7
2016-12-21T11:25:14.806Z,31.7
2016-12-21T11:26:19.465Z,31.6
2016-12-21T11:27:17.952Z,31.7
2016-12-21T11:28:19.188Z,31.7
2016-12-21T11:29:15.260Z,31.7
2016-12-21T11:30:14.546Z,31.7
2016-12-21T11:31:15.137Z,31.7
2016-12-21T11:32:14.331Z,31.7
2016-12-21T11:33:15.865Z,31.6
2016-12-21T11:34:14.483Z,31.7
2016-12-21T11:35:14.703Z,31.7
2016-12-21T11:36:14.843Z,31.7
2016-12-21T11:37:14.906Z,31.6
2016-12-21T11:38:14.910Z,31.6
2016-12-21T11:39:15.717Z,31.6
2016-12-21T11:40:14.118Z,31.6
2016-12-21T11:41:13.350Z,31.5
2016-12-21T11:42:16.609Z,31.5
2016-12-21T11:43:13.356Z,31.5
2016-12-21T11:44:14.639Z,31.6
2016-12-21T11:45:17.420Z,31.6
2016-12-21T11:46:15.728Z,31.5
2016-12-21T11:47:13.980Z,31.5
2016-12-21T11:48:13.346Z,31.5
2016-12-21T11:49:18.054Z,31.5
2016-12-21T11:50:15.059Z,31.5
2016-12-21T11:51:14.240Z,31.5
2016-12-21T11:52:18.566Z,31.5
2016-12-21T11:53:15.097Z,31.4
2016-12-21T11:54:15.767Z,31.4
2016-12-21T11:55:14.044Z,31.3
2016-12-21T11:56:15.379Z,31
2016-12-21T11:57:16.150Z,30.8
2016-12-21T11:58:14.814Z,30.5
2016-12-21T11:59:16.677Z,30.3
2016-12-21T12:00:18.297Z,30.1
2016-12-21T12:01:15.628Z,29.9
2016-12-21T12:02:19.597Z,29.8
2016-12-21T12:03:16.385Z,29.6
2016-12-21T12:04:18.073Z,29.4
2016-12-21T12:05:14.820Z,29.4
2016-12-21T12:06:16.283Z,29.4
2016-12-21T12:07:17.854Z,29.4
2016-12-21T12:08:17.362Z,29.5
2016-12-21T12:09:17.421Z,29.6
2016-12-21T12:10:16.667Z,29.8
2016-12-21T12:11:16.643Z,29.8
2016-12-21T12:12:17.794Z,29.9
2016-12-21T12:13:14.616Z,30
2016-12-21T12:14:16.362Z,30.1
2016-12-21T12:15:19.366Z,30.2
2016-12-21T12:16:14.752Z,30.3
2016-12-21T12:17:15.552Z,30.4
2016-12-21T12:18:15.262Z,30.4
2016-12-21T12:19:16.178Z,30.5
2016-12-21T12:20:17.335Z,30.6
2016-12-21T12:21:16.402Z,30.6
2016-12-21T12:22:16.424Z,30.7
2016-12-21T12:23:18.438Z,30.8
2016-12-21T12:24:17.221Z,30.8
2016-12-21T12:25:17.097Z,30.8
2016-12-21T12:26:15.073Z,30.8
2016-12-21T12:27:17.675Z,30.9
2016-12-21T12:28:16.696Z,30.9
2016-12-21T12:29:15.867Z,30.9
2016-12-21T12:30:15.448Z,31
2016-12-21T12:31:16.993Z,31
2016-12-21T12:32:19.083Z,31
2016-12-21T12:33:17.196Z,31
2016-12-21T12:34:17.091Z,31.1
2016-12-21T12:35:15.619Z,31.1
2016-12-21T12:36:17.238Z,31.1
2016-12-21T12:37:15.564Z,31.1
2016-12-21T12:38:16.454Z,31.1
2016-12-21T12:39:16.264Z,31.1
2016-12-21T12:40:17.303Z,31.1
2016-12-21T12:41:17.469Z,31.2
2016-12-21T12:42:17.507Z,31.2
2016-12-21T12:43:18.837Z,31.3
2016-12-21T12:44:15.965Z,31.3
2016-12-21T12:45:18.614Z,31.4
2016-12-21T12:46:17.911Z,31.4
2016-12-21T12:47:17.007Z,31.4
2016-12-21T12:48:22.360Z,31.4
2016-12-21T12:49:19.148Z,31.4
2016-12-21T12:50:17.866Z,31.4
2016-12-21T12:51:19.178Z,31.4
2016-12-21T12:52:17.213Z,31.4
2016-12-21T12:53:17.186Z,31.4
2016-12-21T12:54:18.858Z,31.5
2016-12-21T12:55:17.274Z,31.5
2016-12-21T12:56:18.961Z,31.5
2016-12-21T12:57:19.555Z,31.5
2016-12-21T12:58:19.236Z,31.5
2016-12-21T12:59:17.425Z,31.6
2016-12-21T13:00:18.164Z,31.6
2016-12-21T13:01:18.384Z,31.6
2016-12-21T13:02:19.583Z,31.6
2016-12-21T13:03:19.188Z,31.6
2016-12-21T13:04:19.054Z,31.6
2016-12-21T13:05:16.955Z,31.6
2016-12-21T13:06:17.119Z,31.6
2016-12-21T13:07:19.464Z,31.7
2016-12-21T13:08:17.747Z,31.7
2016-12-21T13:09:19.687Z,31.7
2016-12-21T13:10:22.057Z,31.7
2016-12-21T13:11:20.354Z,31.5
2016-12-21T13:12:18.189Z,31.4
2016-12-21T13:13:18.931Z,31.1
2016-12-21T13:14:21.578Z,30.8
2016-12-21T13:15:22.431Z,30.5
2016-12-21T13:16:22.360Z,30.3
2016-12-21T13:17:21.740Z,30
2016-12-21T13:18:21.179Z,29.8
2016-12-21T13:19:20.392Z,29.6
2016-12-21T13:20:17.730Z,29.5
2016-12-21T13:21:24.118Z,29.3
2016-12-21T13:22:19.817Z,29.2
2016-12-21T13:23:18.871Z,29.1
2016-12-21T13:24:18.546Z,28.9
2016-12-21T13:25:18.621Z,28.8
2016-12-21T13:26:20.589Z,28.7
2016-12-21T13:27:18.105Z,28.6
2016-12-21T13:28:20.296Z,28.5